Etusivu
METAR-TAF:

METAR-TAF

Lentoasemat :

Fort Hood / Killeen, Texas, Yhdysvallat

Leveyspiiri: 31-06N, Pituuspiiri: 097-20W, korkeus merenpinnasta: 283 m

Tämänhetkinen sää

Tämä raportti tehtiin 49 minuuttia sitten, kello 05.55 UTC
Tuuli 13 kn etelästä puuskistuen 19 kn:hen
Lämpötila 26°C
Kosteus 84%
Ilmanpaine 1009 hPa
Näkyvyys: 12.9 km
Hajonneita pilviä 1500 ft:n korkeudessa
Pilvistä 2000 ft:n korkeudessa

METAR: KHLR 210555Z AUTO 17013G19KT 8SM BKN015 OVC020 26/23 A2979 RMK AO2 SLP076 T02560229 10310 20255 403270198 50000

Aika: 00:44 (06:44 UTC)


TAF: puuttuu

Säähavainnot ja -ennusteet yli 4000 lentoasemalta (METAR- ja TAF-raportit).

Käytössä olevat sääasemat on merkitty karttaan keltaisilla ja punaisilla pisteillä.

Aseta hiiri pisteen päälle nähdäksesi sääaseman nimen.

Klikkaa sitten nähdäksesi säähavainnot ja -ennusteet.

Kartan vaihtaminen: klikkaa mustalla rastilla varustettuja vihreitä pisteitä, niin voit zoomata sisään; viivalla varustettua vihreää pistettä, niin voit zoomata ulos tai vihreitä nuolia, niin pääset viereisille kartoille.


METAR-TAF: